Time;durP1;ratioP1;P1;durP2;ratioP2;P2;SDS_P1;SDS_P2;PMS_P1;PMS_P2;Temp;Humidity;BMP_temperature;BMP_pressure;BME280_temperature;BME280_humidity;BME280_pressure;Samples;Min_cycle;Max_cycle;Signal;HPM_P1;HPM_P2
2023/09/12 00:02:14;;;;;;;21.90;14.20;;;;;;;13.60;100.00;100532.52;105322;1262;71456;-60
2023/09/12 00:04:41;;;;;;;21.40;15.50;;;;;;;13.58;100.00;100530.80;105480;1262;60611;-62
2023/09/12 00:07:08;;;;;;;21.90;15.40;;;;;;;13.56;100.00;100532.09;105486;1256;60300;-62
2023/09/12 00:09:35;;;;;;;23.00;13.60;;;;;;;13.56;100.00;100529.66;105119;1257;72728;-60
2023/09/12 00:12:03;;;;;;;24.70;15.50;;;;;;;13.55;100.00;100530.46;105333;1257;65508;-60
2023/09/12 00:14:30;;;;;;;22.20;14.60;;;;;;;13.55;100.00;100533.98;105308;1257;71531;-60
2023/09/12 00:16:57;;;;;;;18.40;13.80;;;;;;;13.54;100.00;100530.91;105534;1256;62025;-61
2023/09/12 00:19:24;;;;;;;21.40;14.70;;;;;;;13.54;100.00;100532.48;105364;1262;60540;-60
2023/09/12 00:21:52;;;;;;;24.60;14.50;;;;;;;13.55;100.00;100536.20;105251;1256;72820;-60
2023/09/12 00:24:19;;;;;;;21.40;14.60;;;;;;;13.56;100.00;100535.52;105356;1262;66052;-60
2023/09/12 00:26:46;;;;;;;26.50;16.30;;;;;;;13.57;100.00;100532.42;105835;1257;72495;-63
2023/09/12 00:29:13;;;;;;;24.30;16.50;;;;;;;13.59;100.00;100530.33;105047;1257;260965;-64
2023/09/12 00:31:40;;;;;;;22.20;14.20;;;;;;;13.61;100.00;100532.36;105292;1262;60369;-60
2023/09/12 00:34:08;;;;;;;22.30;14.90;;;;;;;13.60;100.00;100527.69;105207;1256;73982;-59
2023/09/12 00:36:37;;;;;;;23.10;14.40;;;;;;;13.60;100.00;100529.80;105434;1256;65757;-60
2023/09/12 00:39:04;;;;;;;24.40;15.30;;;;;;;13.58;100.00;100531.61;105572;1262;70525;-63
2023/09/12 00:41:31;;;;;;;20.50;14.00;;;;;;;13.56;100.00;100543.50;105244;1262;60540;-59
2023/09/12 00:43:59;;;;;;;20.40;13.50;;;;;;;13.49;100.00;100545.42;105474;1261;60305;-61
2023/09/12 00:46:26;;;;;;;16.70;12.00;;;;;;;13.39;100.00;100544.51;105404;1256;73969;-60
2023/09/12 00:48:53;;;;;;;17.30;12.00;;;;;;;13.30;100.00;100545.86;105238;1257;67140;-60
2023/09/12 00:51:20;;;;;;;16.60;12.50;;;;;;;13.24;100.00;100548.08;105444;1262;72156;-62
2023/09/12 00:53:48;;;;;;;20.30;12.30;;;;;;;13.20;100.00;100549.52;105398;1257;60567;-60
2023/09/12 00:56:15;;;;;;;16.10;11.80;;;;;;;13.18;100.00;100546.15;105361;1257;60540;-61
2023/09/12 00:58:43;;;;;;;18.60;12.40;;;;;;;13.16;100.00;100546.36;106655;1261;73945;-60
2023/09/12 01:01:11;;;;;;;16.50;12.80;;;;;;;13.17;100.00;100543.67;105586;1257;65808;-63
2023/09/12 01:03:38;;;;;;;16.40;13.30;;;;;;;13.18;100.00;100546.85;105404;1261;73446;-61
2023/09/12 01:06:05;;;;;;;17.20;12.30;;;;;;;13.20;100.00;100547.63;105331;1262;60726;-61
2023/09/12 01:08:33;;;;;;;16.90;12.20;;;;;;;13.22;100.00;100547.02;105230;1261;60334;-60
2023/09/12 01:11:00;;;;;;;18.00;12.10;;;;;;;13.24;100.00;100546.92;105527;1265;73967;-61
2023/09/12 01:13:27;;;;;;;16.70;13.00;;;;;;;13.26;100.00;100549.13;105188;1263;66611;-61
2023/09/12 01:15:54;;;;;;;16.70;12.40;;;;;;;13.27;100.00;100545.19;105305;1261;71189;-60
2023/09/12 01:18:21;;;;;;;14.90;11.70;;;;;;;13.27;100.00;100548.55;105242;1262;61246;-60
2023/09/12 01:21:17;;;;;;;16.20;11.00;;;;;;;13.26;100.00;100545.46;105447;1262;60455;-60
2023/09/12 01:23:47;;;;;;;16.90;11.60;;;;;;;13.26;100.00;100550.17;105318;1261;73958;-60
2023/09/12 01:26:44;;;;;;;16.20;12.10;;;;;;;13.24;100.00;100552.15;105394;1262;66074;-60
2023/09/12 01:29:10;;;;;;;17.00;12.40;;;;;;;13.20;100.00;100555.69;105069;1261;72630;-60
2023/09/12 01:31:39;;;;;;;18.00;12.60;;;;;;;13.15;100.00;100560.85;105280;1263;60652;-61
2023/09/12 01:34:10;;;;;;;17.40;11.40;;;;;;;13.10;100.00;100562.84;105345;1264;60361;-60
2023/09/12 01:36:38;;;;;;;16.10;10.90;;;;;;;13.05;100.00;100561.72;105480;1262;73745;-63
2023/09/12 01:39:05;;;;;;;14.00;11.10;;;;;;;13.01;100.00;100561.52;105321;1259;67542;-60
2023/09/12 01:41:35;;;;;;;15.30;11.30;;;;;;;12.97;100.00;100563.40;105385;1262;71419;-60
2023/09/12 01:44:03;;;;;;;16.60;12.30;;;;;;;12.94;100.00;100561.15;105368;1262;60737;-61
2023/09/12 01:46:29;;;;;;;13.80;10.30;;;;;;;12.92;100.00;100554.77;105925;1263;60354;-60
2023/09/12 01:48:57;;;;;;;16.40;12.10;;;;;;;12.90;100.00;100557.11;105112;1256;74412;-63
2023/09/12 01:51:24;;;;;;;18.50;11.80;;;;;;;12.88;100.00;100556.45;104812;1264;67083;-60
2023/09/12 01:53:51;;;;;;;16.10;12.40;;;;;;;12.86;100.00;100559.82;105274;1257;72639;-60
2023/09/12 01:56:18;;;;;;;15.10;12.00;;;;;;;12.83;100.00;100557.59;104960;1257;61200;-60
2023/09/12 01:58:45;;;;;;;16.90;11.00;;;;;;;12.79;100.00;100557.46;105600;1263;60351;-60
2023/09/12 02:01:12;;;;;;;20.20;11.70;;;;;;;12.73;100.00;100557.19;105196;1262;74142;-60
2023/09/12 02:03:39;;;;;;;15.60;11.60;;;;;;;12.68;100.00;100559.03;105294;1257;67064;-61
2023/09/12 02:06:07;;;;;;;16.90;11.90;;;;;;;12.61;100.00;100557.70;105332;1256;71850;-61
2023/09/12 02:08:34;;;;;;;16.20;11.70;;;;;;;12.56;100.00;100557.85;105515;1261;60424;-61
2023/09/12 02:11:01;;;;;;;16.90;12.20;;;;;;;12.50;100.00;100561.90;105280;1257;60352;-60
2023/09/12 02:13:28;;;;;;;18.30;11.50;;;;;;;12.46;100.00;100562.39;105389;1257;73358;-61
2023/09/12 02:16:00;;;;;;;12.90;10.90;;;;;;;12.42;100.00;100568.12;105170;1261;67688;-60
2023/09/12 02:18:27;;;;;;;15.60;11.20;;;;;;;12.39;100.00;100565.86;105314;1263;72793;-61
2023/09/12 02:20:54;;;;;;;14.30;10.90;;;;;;;12.36;100.00;100566.56;105271;1257;60337;-60
2023/09/12 02:23:22;;;;;;;15.80;10.90;;;;;;;12.32;100.00;100567.96;105008;1256;60475;-64
2023/09/12 02:25:49;;;;;;;16.50;10.00;;;;;;;12.26;100.00;100569.92;104991;1256;72729;-59
2023/09/12 02:28:16;;;;;;;14.90;11.50;;;;;;;12.20;100.00;100573.27;105297;1262;65876;-62
2023/09/12 02:30:43;;;;;;;14.30;11.60;;;;;;;12.14;100.00;100576.24;104768;1257;72959;-59
2023/09/12 02:33:10;;;;;;;16.10;12.00;;;;;;;12.11;100.00;100575.04;104905;1257;60931;-58
2023/09/12 02:35:38;;;;;;;15.90;11.80;;;;;;;12.07;100.00;100578.30;104996;1257;60428;-64
2023/09/12 02:38:05;;;;;;;16.90;11.00;;;;;;;12.03;100.00;100580.50;105040;1257;72405;-59
2023/09/12 02:40:32;;;;;;;14.30;11.00;;;;;;;12.01;100.00;100584.22;104906;1262;66056;-59
2023/09/12 02:42:59;;;;;;;14.30;11.20;;;;;;;12.01;100.00;100582.89;104958;1264;71259;-59
2023/09/12 02:45:26;;;;;;;14.60;11.90;;;;;;;12.01;100.00;100583.70;104867;1257;60475;-63
2023/09/12 02:47:54;;;;;;;16.20;11.50;;;;;;;12.01;100.00;100582.10;104976;1258;60387;-60
2023/09/12 02:50:21;;;;;;;16.50;11.10;;;;;;;12.01;100.00;100582.98;104918;1257;73254;-60
2023/09/12 02:52:48;;;;;;;16.60;11.60;;;;;;;12.03;100.00;100581.59;105002;1262;67867;-60
2023/09/12 02:55:15;;;;;;;15.20;11.50;;;;;;;12.05;100.00;100585.02;104944;1259;72989;-60
2023/09/12 02:57:42;;;;;;;14.50;12.10;;;;;;;12.08;100.00;100589.32;105087;1257;60525;-62
2023/09/12 03:00:11;;;;;;;16.20;12.70;;;;;;;12.11;100.00;100594.21;104999;1260;59693;-61
2023/09/12 03:02:38;;;;;;;19.40;11.80;;;;;;;12.12;100.00;100596.80;105048;1258;74370;-60
2023/09/12 03:05:05;;;;;;;15.10;11.70;;;;;;;12.13;100.00;100601.77;104911;1265;66091;-60
2023/09/12 03:07:32;;;;;;;17.50;12.00;;;;;;;12.12;100.00;100598.97;105001;1257;72720;-60
2023/09/12 03:10:00;;;;;;;16.90;10.90;;;;;;;12.11;100.00;100601.77;104844;1265;60949;-60
2023/09/12 03:12:26;;;;;;;14.80;11.30;;;;;;;12.12;100.00;100604.29;104917;1263;60450;-60
2023/09/12 03:14:53;;;;;;;15.90;12.00;;;;;;;12.14;100.00;100605.95;104909;1260;72650;-60
2023/09/12 03:17:20;;;;;;;17.80;12.30;;;;;;;12.17;100.00;100604.18;104963;1263;65238;-60
2023/09/12 03:19:48;;;;;;;15.60;12.30;;;;;;;12.22;100.00;100606.27;104991;1262;71147;-65
2023/09/12 03:22:15;;;;;;;15.60;11.80;;;;;;;12.26;100.00;100615.36;105301;1261;60747;-60
2023/09/12 03:24:42;;;;;;;16.30;11.40;;;;;;;12.28;100.00;100618.60;104857;1263;60511;-60
2023/09/12 03:27:09;;;;;;;13.40;10.40;;;;;;;12.28;100.00;100618.92;105018;1258;73613;-60
2023/09/12 03:29:36;;;;;;;13.70;11.20;;;;;;;12.27;100.00;100622.53;105046;1263;65832;-60
2023/09/12 03:32:03;;;;;;;14.20;10.50;;;;;;;12.25;100.00;100622.67;104933;1263;70409;-60
2023/09/12 03:34:32;;;;;;;14.40;11.30;;;;;;;12.18;100.00;100620.64;104765;1258;61955;-64
2023/09/12 03:36:59;;;;;;;15.40;11.30;;;;;;;12.12;100.00;100619.27;104999;1257;61600;-60
2023/09/12 03:39:26;;;;;;;12.80;10.70;;;;;;;12.10;100.00;100619.94;105009;1258;73615;-61
2023/09/12 03:41:53;;;;;;;13.10;10.20;;;;;;;12.10;100.00;100621.14;104987;1260;66571;-60
2023/09/12 03:44:21;;;;;;;13.40;11.90;;;;;;;12.12;100.00;100622.20;105002;1263;72631;-60
2023/09/12 03:46:48;;;;;;;12.80;11.00;;;;;;;12.17;100.00;100628.63;105040;1261;62013;-65
2023/09/12 03:49:15;;;;;;;13.40;11.50;;;;;;;12.22;100.00;100632.58;104918;1263;60885;-59
2023/09/12 03:51:42;;;;;;;16.10;11.30;;;;;;;12.27;100.00;100629.85;105224;1262;73914;-64
2023/09/12 03:54:09;;;;;;;15.40;10.30;;;;;;;12.35;100.00;100628.73;106821;1263;67103;-59
2023/09/12 03:56:37;;;;;;;15.90;10.70;;;;;;;12.43;100.00;100633.48;105215;1262;72655;-63
2023/09/12 03:59:04;;;;;;;12.50;9.90;;;;;;;12.52;100.00;100637.67;104888;1262;62711;-62
2023/09/12 04:01:31;;;;;;;13.70;10.70;;;;;;;12.61;100.00;100634.17;104827;1262;60442;-62
2023/09/12 04:03:58;;;;;;;14.20;11.40;;;;;;;12.69;100.00;100634.21;104923;1262;74036;-62
2023/09/12 04:06:29;;;;;;;;;;;;;;;12.77;100.00;100631.95;104873;1260;66937;-63
2023/09/12 04:08:56;;;;;;;14.90;12.10;;;;;;;12.83;100.00;100633.30;104699;1262;72844;-60
2023/09/12 04:11:23;;;;;;;16.50;10.80;;;;;;;12.88;100.00;100635.88;105139;1257;62025;-60
2023/09/12 04:14:10;;;;;;;15.30;11.20;;;;;;;12.97;100.00;100635.10;104859;1263;60339;-63
2023/09/12 04:16:37;;;;;;;13.80;10.90;;;;;;;13.09;100.00;100636.48;104737;1262;73841;-60
2023/09/12 04:19:04;;;;;;;15.90;11.60;;;;;;;13.22;100.00;100638.11;105055;1260;67027;-60
2023/09/12 04:21:32;;;;;;;20.10;12.70;;;;;;;13.35;100.00;100635.81;105011;1264;72588;-61
2023/09/12 04:23:59;;;;;;;15.70;12.90;;;;;;;13.52;100.00;100638.23;105230;1262;61805;-63
2023/09/12 04:26:26;;;;;;;17.30;12.30;;;;;;;13.71;100.00;100639.48;105169;1257;60412;-65
2023/09/12 04:28:53;;;;;;;19.10;13.90;;;;;;;13.89;100.00;100647.17;105071;1262;73492;-61
2023/09/12 04:31:20;;;;;;;19.40;14.60;;;;;;;14.04;100.00;100651.15;105032;1260;67183;-61
2023/09/12 04:33:47;;;;;;;21.80;14.80;;;;;;;14.18;100.00;100659.35;104967;1272;72653;-62
2023/09/12 04:36:14;;;;;;;19.80;14.90;;;;;;;14.30;100.00;100661.52;105078;1263;60866;-61
2023/09/12 04:38:42;;;;;;;20.70;15.40;;;;;;;14.40;100.00;100665.19;105005;1263;60363;-62
2023/09/12 04:41:14;;;;;;;21.20;14.90;;;;;;;14.43;100.00;100661.75;104922;1257;73019;-62
2023/09/12 04:43:41;;;;;;;19.70;16.10;;;;;;;14.41;100.00;100656.68;104920;1266;66087;-61
2023/09/12 04:46:08;;;;;;;19.80;15.90;;;;;;;14.36;100.00;100657.05;105072;1261;72675;-62
2023/09/12 04:48:36;;;;;;;24.30;17.20;;;;;;;14.34;100.00;100649.43;105124;1263;60925;-66
2023/09/12 04:51:03;;;;;;;20.50;16.20;;;;;;;14.37;100.00;100650.77;104841;1263;61071;-61
2023/09/12 04:53:34;;;;;;;23.10;15.40;;;;;;;14.41;100.00;100652.32;104962;1257;72691;-61
2023/09/12 04:56:03;;;;;;;22.10;16.00;;;;;;;14.47;100.00;100652.54;105115;1263;66525;-63
2023/09/12 04:58:30;;;;;;;20.50;15.70;;;;;;;14.53;100.00;100645.28;105343;1262;72785;-62
2023/09/12 05:00:57;;;;;;;20.00;15.30;;;;;;;14.62;100.00;100645.52;104988;1263;62003;-61
2023/09/12 05:03:24;;;;;;;24.50;15.70;;;;;;;14.74;100.00;100639.92;105022;1263;60570;-61
2023/09/12 05:05:54;;;;;;;23.30;16.40;;;;;;;14.86;100.00;100639.70;104851;1262;73980;-65
2023/09/12 05:08:22;;;;;;;18.70;14.40;;;;;;;15.00;100.00;100641.27;104672;1259;67181;-62
2023/09/12 05:10:49;;;;;;;18.10;14.00;;;;;;;15.13;100.00;100641.95;105028;1256;71387;-62
2023/09/12 05:13:17;;;;;;;15.00;13.10;;;;;;;15.26;100.00;100637.61;104910;1262;60494;-62
2023/09/12 05:15:44;;;;;;;14.80;12.80;;;;;;;15.37;100.00;100640.26;105023;1260;60496;-59
2023/09/12 05:18:11;;;;;;;14.70;12.60;;;;;;;15.49;100.00;100642.42;104901;1261;73053;-59
2023/09/12 05:20:39;;;;;;;16.30;12.70;;;;;;;15.61;100.00;100643.36;105032;1265;66644;-66
2023/09/12 05:23:05;;;;;;;14.80;13.10;;;;;;;15.74;100.00;100643.03;104833;1260;71729;-59
2023/09/12 05:25:32;;;;;;;18.10;12.20;;;;;;;15.90;100.00;100640.06;104820;1260;60553;-62
2023/09/12 05:28:00;;;;;;;16.50;12.40;;;;;;;16.09;100.00;100642.40;105130;1263;60412;-64
2023/09/12 05:30:27;;;;;;;16.10;13.90;;;;;;;16.34;100.00;100638.55;105237;1261;72595;-61
2023/09/12 05:32:54;;;;;;;18.70;13.40;;;;;;;16.67;100.00;100634.17;104954;1262;66557;-60
2023/09/12 05:35:22;;;;;;;19.60;13.50;;;;;;;17.14;100.00;100630.61;104870;1261;71343;-60
2023/09/12 05:37:50;;;;;;;18.00;13.80;;;;;;;17.70;100.00;100632.11;104946;1266;61340;-60
2023/09/12 05:40:18;;;;;;;14.60;12.50;;;;;;;18.29;100.00;100627.40;104892;1257;61318;-61
2023/09/12 05:42:45;;;;;;;15.10;11.90;;;;;;;18.82;100.00;100627.02;104648;1262;75359;-60
2023/09/12 05:45:12;;;;;;;15.30;12.70;;;;;;;19.11;100.00;100617.40;105050;1262;65957;-60
2023/09/12 05:47:39;;;;;;;21.30;14.40;;;;;;;19.16;100.00;100598.60;104748;1270;72544;-61
2023/09/12 05:50:07;;;;;;;18.70;15.10;;;;;;;19.14;100.00;100585.88;104962;1257;62046;-64
2023/09/12 05:52:34;;;;;;;18.40;14.50;;;;;;;19.13;100.00;100578.02;104971;1273;60294;-60
2023/09/12 05:55:01;;;;;;;18.10;13.40;;;;;;;19.16;100.00;100571.64;104845;1263;75058;-59
2023/09/12 05:57:32;;;;;;;15.20;13.50;;;;;;;19.21;100.00;100570.54;104857;1263;66044;-60
2023/09/12 06:00:05;;;;;;;14.60;12.20;;;;;;;19.28;100.00;100567.45;104914;1264;72717;-61
2023/09/12 06:02:39;;;;;;;15.70;12.90;;;;;;;19.44;100.00;100562.22;104945;1261;61322;-61
2023/09/12 06:05:07;;;;;;;12.70;10.40;;;;;;;19.76;100.00;100558.85;105006;1261;61362;-61
2023/09/12 06:07:34;;;;;;;13.10;11.30;;;;;;;20.12;100.00;100549.34;105069;1258;74429;-60
2023/09/12 06:10:02;;;;;;;13.90;10.80;;;;;;;20.42;100.00;100540.67;105410;1261;65959;-67
2023/09/12 06:12:29;;;;;;;12.70;11.50;;;;;;;20.71;100.00;100529.58;104902;1260;71652;-59
2023/09/12 06:14:56;;;;;;;16.80;12.00;;;;;;;21.11;100.00;100520.58;104998;1260;61234;-61
2023/09/12 06:17:23;;;;;;;12.50;11.20;;;;;;;21.55;100.00;100517.55;105003;1257;61227;-60
2023/09/12 06:19:51;;;;;;;13.10;11.20;;;;;;;21.92;100.00;100514.32;104925;1260;73590;-64
2023/09/12 06:22:19;;;;;;;12.70;11.40;;;;;;;22.23;100.00;100510.26;105051;1259;66576;-63
2023/09/12 06:24:46;;;;;;;12.20;10.30;;;;;;;22.53;100.00;100513.98;105028;1257;72754;-61
2023/09/12 06:27:18;;;;;;;13.10;11.70;;;;;;;22.85;100.00;100517.10;104999;1263;61219;-61
2023/09/12 06:29:48;;;;;;;11.10;10.00;;;;;;;23.26;100.00;100523.89;104971;1261;61137;-63
2023/09/12 06:32:15;;;;;;;12.00;10.80;;;;;;;23.67;100.00;100525.77;105086;1261;74673;-61
2023/09/12 06:34:42;;;;;;;13.10;10.60;;;;;;;24.00;100.00;100523.75;104770;1258;67132;-60
2023/09/12 06:37:10;;;;;;;11.40;10.20;;;;;;;24.35;100.00;100522.06;104911;1264;72772;-60
2023/09/12 06:39:37;;;;;;;10.20;9.00;;;;;;;24.87;100.00;100519.79;105231;1257;61333;-65
2023/09/12 06:42:06;;;;;;;9.20;8.20;;;;;;;25.69;100.00;100514.34;105207;1259;61337;-64
2023/09/12 06:44:33;;;;;;;8.30;7.40;;;;;;;26.68;100.00;100513.84;104960;1261;73470;-61
2023/09/12 06:47:00;;;;;;;8.60;7.70;;;;;;;27.63;100.00;100510.17;104995;1257;67099;-61
2023/09/12 06:49:28;;;;;;;8.40;7.50;;;;;;;28.30;98.37;100513.13;104948;1257;72917;-60
2023/09/12 06:51:55;;;;;;;7.40;6.60;;;;;;;28.69;86.80;100514.36;105059;1261;61097;-66
2023/09/12 06:54:22;;;;;;;9.80;8.10;;;;;;;28.92;76.07;100512.84;104943;1263;61249;-61
2023/09/12 06:56:49;;;;;;;8.00;7.00;;;;;;;29.00;70.35;100512.80;104972;1257;73778;-61
2023/09/12 06:59:16;;;;;;;8.50;7.30;;;;;;;28.96;71.22;100506.92;104959;1260;67342;-61
2023/09/12 07:01:44;;;;;;;7.60;6.90;;;;;;;29.00;71.19;100508.13;105335;1257;72518;-61
2023/09/12 07:04:11;;;;;;;7.50;6.80;;;;;;;29.15;66.59;100509.01;104908;1261;61184;-61
2023/09/12 07:06:39;;;;;;;7.60;6.80;;;;;;;29.22;63.58;100505.90;105066;1257;61857;-61
2023/09/12 07:09:08;;;;;;;8.00;6.70;;;;;;;29.05;64.89;100509.59;105051;1257;74599;-61
2023/09/12 07:11:35;;;;;;;9.30;7.40;;;;;;;28.88;68.58;100511.89;104946;1257;59897;-61
2023/09/12 07:14:03;;;;;;;6.30;5.60;;;;;;;28.79;71.11;100513.85;104934;1257;72676;-60
2023/09/12 07:16:31;;;;;;;6.70;4.90;;;;;;;28.61;60.32;100511.23;104956;1262;61248;-60
2023/09/12 07:18:59;;;;;;;7.50;5.70;;;;;;;28.46;62.12;100510.19;104988;1257;61151;-61
2023/09/12 07:21:26;;;;;;;7.50;6.00;;;;;;;28.59;61.42;100506.79;105014;1257;74643;-61
2023/09/12 07:23:53;;;;;;;9.70;5.80;;;;;;;28.87;61.40;100509.73;105288;1257;67921;-65
2023/09/12 07:26:20;;;;;;;7.20;5.90;;;;;;;29.35;60.31;100504.77;104983;1257;73648;-61
2023/09/12 07:28:47;;;;;;;7.50;6.00;;;;;;;30.01;55.77;100504.09;104944;1258;61288;-62
2023/09/12 07:31:18;;;;;;;7.30;5.90;;;;;;;30.52;52.71;100505.38;104999;1260;61247;-61
2023/09/12 07:33:45;;;;;;;6.50;5.40;;;;;;;30.79;51.13;100503.77;105265;1258;73444;-66
2023/09/12 07:36:12;;;;;;;5.70;4.80;;;;;;;31.14;48.28;100502.61;105027;1261;67772;-61
2023/09/12 07:38:41;;;;;;;6.40;5.20;;;;;;;31.37;44.95;100501.59;104979;1261;71569;-61
2023/09/12 07:41:09;;;;;;;6.60;4.80;;;;;;;31.38;43.20;100500.16;104986;1262;61276;-61
2023/09/12 07:43:36;;;;;;;5.70;4.70;;;;;;;31.19;43.39;100497.15;105005;1258;61346;-60
2023/09/12 07:46:03;;;;;;;8.90;4.50;;;;;;;31.01;43.39;100496.61;105177;1261;75161;-64
2023/09/12 07:48:30;;;;;;;6.20;4.70;;;;;;;30.87;43.14;100495.44;104903;1260;67035;-60
2023/09/12 07:50:57;;;;;;;6.30;4.60;;;;;;;30.79;42.76;100496.09;104885;1258;74552;-61
2023/09/12 07:53:24;;;;;;;5.50;4.90;;;;;;;30.78;42.71;100495.90;104983;1257;61281;-61
2023/09/12 07:55:51;;;;;;;5.30;4.60;;;;;;;30.68;41.40;100491.60;104960;1260;61295;-62
2023/09/12 07:58:19;;;;;;;6.40;4.70;;;;;;;30.38;41.52;100492.41;105137;1261;73451;-64
2023/09/12 08:00:46;;;;;;;6.30;5.10;;;;;;;30.16;43.37;100493.23;105088;1257;67300;-61
2023/09/12 08:03:14;;;;;;;6.10;4.60;;;;;;;30.06;44.24;100493.33;104947;1261;71460;-60
2023/09/12 08:05:41;;;;;;;5.00;4.40;;;;;;;29.98;43.85;100494.84;104917;1258;61270;-61
2023/09/12 08:08:08;;;;;;;6.20;5.00;;;;;;;29.88;43.60;100494.01;104975;1256;61136;-63
2023/09/12 08:10:35;;;;;;;6.10;4.80;;;;;;;29.69;44.51;100493.68;105041;1257;75258;-60
2023/09/12 08:13:03;;;;;;;5.80;5.10;;;;;;;29.52;43.68;100493.69;104990;1258;67998;-60
2023/09/12 08:15:30;;;;;;;7.20;6.10;;;;;;;29.37;43.46;100495.38;104993;1258;72540;-61
2023/09/12 08:17:57;;;;;;;8.40;5.20;;;;;;;29.13;43.38;100497.94;104825;1258;61173;-61
2023/09/12 08:20:24;;;;;;;6.10;5.50;;;;;;;29.01;43.11;100498.09;105035;1258;61161;-60
2023/09/12 08:22:51;;;;;;;9.70;5.40;;;;;;;29.01;42.35;100495.95;104987;1257;74855;-61
2023/09/12 08:25:18;;;;;;;5.10;4.50;;;;;;;29.01;41.72;100499.16;104986;1260;66402;-61
2023/09/12 08:27:45;;;;;;;7.30;5.50;;;;;;;28.96;42.81;100497.27;105531;1257;72655;-64
2023/09/12 08:30:13;;;;;;;6.60;5.40;;;;;;;29.06;43.91;100492.08;105888;1260;61347;-64
2023/09/12 08:32:43;;;;;;;5.60;5.00;;;;;;;29.22;42.63;100495.11;104917;1260;61305;-61
2023/09/12 08:35:14;;;;;;;5.60;4.60;;;;;;;29.35;43.00;100496.17;104909;1257;73419;-59
2023/09/12 08:37:41;;;;;;;6.10;3.90;;;;;;;29.62;40.66;100494.30;105051;1258;67107;-64
2023/09/12 08:40:10;;;;;;;5.40;4.30;;;;;;;30.00;39.06;100496.48;105310;1256;71776;-65
2023/09/12 08:42:41;;;;;;;6.90;5.70;;;;;;;30.32;37.64;100496.46;105012;1259;60226;-62
2023/09/12 08:45:13;;;;;;;5.30;4.60;;;;;;;30.54;37.43;100491.94;105313;1257;61125;-61
2023/09/12 08:47:44;;;;;;;5.80;5.20;;;;;;;30.64;36.18;100489.88;105181;1260;75410;-62
2023/09/12 08:50:13;;;;;;;6.80;5.50;;;;;;;30.53;35.41;100486.80;104961;1260;65730;-64
2023/09/12 08:52:41;;;;;;;6.80;5.50;;;;;;;30.39;34.77;100483.05;104964;1257;73036;-62
2023/09/12 08:55:26;;;;;;;6.50;5.50;;;;;;;30.24;35.01;100485.79;105237;1257;61276;-65
2023/09/12 08:57:53;;;;;;;7.80;5.20;;;;;;;30.06;35.16;100484.79;105305;1257;61186;-64
2023/09/12 09:00:21;;;;;;;7.20;6.30;;;;;;;29.82;35.22;100484.35;104973;1257;76317;-63
2023/09/12 09:02:48;;;;;;;7.00;6.30;;;;;;;29.72;36.26;100481.58;105128;1258;67071;-63
2023/09/12 09:05:15;;;;;;;6.70;6.00;;;;;;;29.75;36.40;100480.81;105053;1257;72621;-64
2023/09/12 09:07:42;;;;;;;7.20;6.20;;;;;;;29.82;36.70;100477.60;104845;1257;61240;-63
2023/09/12 09:10:17;;;;;;;7.70;5.50;;;;;;;29.88;36.67;100473.61;104986;1257;61754;-64
2023/09/12 09:12:47;;;;;;;6.30;5.60;;;;;;;29.89;36.96;100475.39;104900;1260;74707;-63
2023/09/12 09:15:24;;;;;;;6.50;5.60;;;;;;;29.94;37.38;100471.81;104909;1257;68476;-60
2023/09/12 09:18:00;;;;;;;7.60;5.50;;;;;;;30.06;37.16;100472.77;104961;1260;72611;-61
2023/09/12 09:20:29;;;;;;;7.10;5.30;;;;;;;30.16;37.46;100470.50;105020;1257;61755;-61
2023/09/12 09:23:10;;;;;;;6.10;5.00;;;;;;;30.38;37.52;100467.09;105196;1260;61165;-61
2023/09/12 09:25:41;;;;;;;7.00;5.30;;;;;;;30.75;36.71;100464.66;105343;1257;74791;-61
2023/09/12 09:28:19;;;;;;;6.00;4.70;;;;;;;31.10;36.29;100460.52;105369;1260;67857;-62
2023/09/12 09:30:48;;;;;;;5.30;4.50;;;;;;;31.25;35.35;100458.56;105289;1257;65220;-61
2023/09/12 09:33:15;;;;;;;7.60;5.50;;;;;;;31.37;35.13;100457.29;105060;1261;61445;-60
2023/09/12 09:35:47;;;;;;;6.40;5.10;;;;;;;31.40;34.26;100459.73;105322;1256;61238;-62
2023/09/12 09:38:16;;;;;;;6.60;5.90;;;;;;;31.11;34.22;100457.95;105317;1257;73497;-63
2023/09/12 09:40:44;;;;;;;7.20;5.70;;;;;;;30.77;35.41;100456.59;105339;1257;67183;-60
2023/09/12 09:43:11;;;;;;;9.00;5.90;;;;;;;30.52;35.18;100457.11;105270;1256;72277;-60
2023/09/12 09:45:45;;;;;;;6.90;5.80;;;;;;;30.17;35.60;100456.33;105283;1256;61285;-63
2023/09/12 09:48:20;;;;;;;6.30;5.60;;;;;;;30.05;36.85;100451.64;105475;1257;61197;-62
2023/09/12 09:50:47;;;;;;;6.40;5.60;;;;;;;30.01;36.59;100452.27;105393;1256;76750;-60
2023/09/12 09:53:14;;;;;;;6.50;5.80;;;;;;;29.52;38.51;100455.50;105318;1260;65763;-60
2023/09/12 09:55:42;;;;;;;9.00;7.10;;;;;;;28.99;40.48;100456.66;105522;1261;74408;-62
2023/09/12 09:58:16;;;;;;;7.40;6.60;;;;;;;28.41;41.82;100459.64;105367;1260;62013;-62
2023/09/12 10:00:43;;;;;;;6.50;5.60;;;;;;;27.90;44.86;100463.80;105164;1256;61256;-62
2023/09/12 10:03:10;;;;;;;6.80;5.80;;;;;;;27.54;47.14;100464.20;105430;1262;75470;-60
2023/09/12 10:05:37;;;;;;;7.80;6.30;;;;;;;27.33;48.18;100467.96;105711;1256;67634;-62
2023/09/12 10:08:06;;;;;;;6.80;5.50;;;;;;;27.33;49.29;100464.34;105272;1256;72876;-63
2023/09/12 10:10:34;;;;;;;6.70;6.00;;;;;;;27.49;48.77;100459.11;105396;1257;61266;-60
2023/09/12 10:13:02;;;;;;;5.90;5.30;;;;;;;27.66;49.86;100452.98;105405;1257;61132;-60
2023/09/12 10:15:30;;;;;;;5.90;4.90;;;;;;;27.78;49.78;100456.66;105316;1257;74182;-64
2023/09/12 10:18:00;;;;;;;6.30;4.90;;;;;;;27.96;49.28;100450.68;105189;1257;68468;-63
2023/09/12 10:20:49;;;;;;;5.00;3.90;;;;;;;28.17;49.32;100447.10;105306;1257;74025;-62
2023/09/12 10:23:23;;;;;;;5.30;4.60;;;;;;;28.47;49.91;100453.86;105425;1264;61264;-62
2023/09/12 10:25:50;;;;;;;5.10;3.60;;;;;;;28.86;49.27;100442.08;105111;1257;61314;-64
2023/09/12 10:28:17;;;;;;;4.80;4.00;;;;;;;29.29;44.13;100441.64;105014;1257;76194;-61
2023/09/12 10:30:45;;;;;;;4.50;3.60;;;;;;;29.80;42.13;100445.17;105375;1260;66355;-60
2023/09/12 10:33:12;;;;;;;4.60;3.60;;;;;;;29.89;39.67;100442.33;105538;1257;73129;-62
2023/09/12 10:35:39;;;;;;;6.00;4.60;;;;;;;29.63;39.59;100439.03;105207;1258;62282;-62
2023/09/12 10:38:06;;;;;;;5.30;4.30;;;;;;;29.47;40.85;100443.48;105348;1257;61204;-62
2023/09/12 10:40:36;;;;;;;5.70;4.30;;;;;;;29.34;41.85;100438.52;105321;1257;76477;-60
2023/09/12 10:43:09;;;;;;;6.80;4.00;;;;;;;29.10;41.15;100442.16;105165;1257;68969;-61
2023/09/12 10:45:36;;;;;;;5.40;4.00;;;;;;;28.80;42.88;100446.34;105266;1257;73023;-60
2023/09/12 10:48:04;;;;;;;5.10;3.70;;;;;;;28.47;43.39;100448.15;105314;1257;61190;-62
2023/09/12 10:50:31;;;;;;;5.20;3.70;;;;;;;28.01;44.09;100452.75;105221;1260;61253;-60
2023/09/12 10:53:15;;;;;;;4.30;3.20;;;;;;;27.51;45.80;100451.92;105259;1256;73571;-60
2023/09/12 10:55:42;;;;;;;3.70;2.60;;;;;;;27.01;46.03;100451.64;105105;1256;67321;-61
2023/09/12 10:58:10;;;;;;;4.80;2.80;;;;;;;26.56;45.90;100446.23;105308;1257;73251;-60
2023/09/12 11:00:38;;;;;;;4.10;3.00;;;;;;;26.14;45.87;100445.38;105134;1257;61691;-61
2023/09/12 11:03:28;;;;;;;4.40;3.40;;;;;;;25.70;48.37;100444.60;105386;1258;60385;-64
2023/09/12 11:05:56;;;;;;;4.90;3.20;;;;;;;25.30;52.32;100447.02;105308;1257;74978;-60
2023/09/12 11:08:24;;;;;;;4.40;3.20;;;;;;;25.10;56.26;100438.95;105294;1260;65755;-60
2023/09/12 11:11:16;;;;;;;5.90;3.60;;;;;;;25.04;57.95;100439.07;105525;1257;72975;-63